sensor_id;sensor_type;location;lat;lon;timestamp;pressure;altitude;pressure_sealevel;temperature;humidity
37848;BME280;23688;33.130;-117.188;2023-03-25T00:01:05;100132.78;;;14.72;65.82
37848;BME280;23688;33.130;-117.188;2023-03-25T00:03:40;100130.00;;;14.67;66.33
37848;BME280;23688;33.130;-117.188;2023-03-25T00:06:15;100139.16;;;14.80;65.17
37848;BME280;23688;33.130;-117.188;2023-03-25T00:08:41;100131.84;;;14.70;66.08
37848;BME280;23688;33.130;-117.188;2023-03-25T00:11:07;100127.28;;;14.40;68.31
37848;BME280;23688;33.130;-117.188;2023-03-25T00:13:34;100138.94;;;14.50;71.86
37848;BME280;23688;33.130;-117.188;2023-03-25T00:16:02;100142.41;;;14.73;71.79
37848;BME280;23688;33.130;-117.188;2023-03-25T00:18:30;100137.84;;;14.19;66.94
37848;BME280;23688;33.130;-117.188;2023-03-25T00:21:02;100138.03;;;14.01;73.77
37848;BME280;23688;33.130;-117.188;2023-03-25T00:23:30;100133.81;;;13.82;70.50
37848;BME280;23688;33.130;-117.188;2023-03-25T00:25:57;100133.13;;;13.64;70.27
37848;BME280;23688;33.130;-117.188;2023-03-25T00:28:27;100142.63;;;13.41;76.11
37848;BME280;23688;33.130;-117.188;2023-03-25T00:30:59;100127.72;;;13.59;74.14
37848;BME280;23688;33.130;-117.188;2023-03-25T00:33:27;100125.53;;;13.93;75.38
37848;BME280;23688;33.130;-117.188;2023-03-25T00:35:54;100134.34;;;13.96;71.11
37848;BME280;23688;33.130;-117.188;2023-03-25T00:38:29;100139.88;;;14.04;71.24
37848;BME280;23688;33.130;-117.188;2023-03-25T00:41:17;100132.25;;;13.86;70.50
37848;BME280;23688;33.130;-117.188;2023-03-25T00:43:48;100127.00;;;13.86;70.72
37848;BME280;23688;33.130;-117.188;2023-03-25T00:46:16;100135.91;;;13.68;70.85
37848;BME280;23688;33.130;-117.188;2023-03-25T00:48:44;100126.00;;;13.60;71.87
37848;BME280;23688;33.130;-117.188;2023-03-25T00:51:10;100144.44;;;13.42;67.35
37848;BME280;23688;33.130;-117.188;2023-03-25T00:53:38;100151.00;;;13.32;73.68
37848;BME280;23688;33.130;-117.188;2023-03-25T00:56:06;100132.00;;;13.15;73.79
37848;BME280;23688;33.130;-117.188;2023-03-25T00:58:32;100138.06;;;13.35;76.44
37848;BME280;23688;33.130;-117.188;2023-03-25T01:00:58;100149.28;;;13.33;71.92
37848;BME280;23688;33.130;-117.188;2023-03-25T01:03:26;100145.44;;;13.24;74.64
37848;BME280;23688;33.130;-117.188;2023-03-25T01:05:55;100142.81;;;13.24;75.00
37848;BME280;23688;33.130;-117.188;2023-03-25T01:08:23;100149.47;;;12.97;75.23
37848;BME280;23688;33.130;-117.188;2023-03-25T01:10:52;100147.31;;;12.87;77.70
37848;BME280;23688;33.130;-117.188;2023-03-25T01:13:22;100136.22;;;12.91;78.15
37848;BME280;23688;33.130;-117.188;2023-03-25T01:15:48;100142.00;;;12.83;72.65
37848;BME280;23688;33.130;-117.188;2023-03-25T01:18:15;100146.88;;;12.97;74.10
37848;BME280;23688;33.130;-117.188;2023-03-25T01:20:42;100149.13;;;12.88;74.08
37848;BME280;23688;33.130;-117.188;2023-03-25T01:23:09;100144.66;;;12.85;74.77
37848;BME280;23688;33.130;-117.188;2023-03-25T01:25:36;100144.81;;;12.69;74.00
37848;BME280;23688;33.130;-117.188;2023-03-25T01:28:03;100139.94;;;12.76;74.53
37848;BME280;23688;33.130;-117.188;2023-03-25T01:30:30;100153.50;;;12.89;72.42
37848;BME280;23688;33.130;-117.188;2023-03-25T01:32:57;100132.91;;;12.54;75.77
37848;BME280;23688;33.130;-117.188;2023-03-25T01:35:23;100126.53;;;12.48;77.26
37848;BME280;23688;33.130;-117.188;2023-03-25T01:37:49;100137.03;;;12.49;76.20
37848;BME280;23688;33.130;-117.188;2023-03-25T01:40:21;100131.41;;;12.59;75.54
37848;BME280;23688;33.130;-117.188;2023-03-25T01:42:51;100132.84;;;12.53;74.72
37848;BME280;23688;33.130;-117.188;2023-03-25T01:45:22;100130.94;;;12.49;74.95
37848;BME280;23688;33.130;-117.188;2023-03-25T01:47:54;100129.88;;;12.24;75.32
37848;BME280;23688;33.130;-117.188;2023-03-25T01:50:21;100123.06;;;12.08;75.83
37848;BME280;23688;33.130;-117.188;2023-03-25T01:52:50;100121.63;;;12.15;76.57
37848;BME280;23688;33.130;-117.188;2023-03-25T01:55:17;100105.50;;;12.04;75.06
37848;BME280;23688;33.130;-117.188;2023-03-25T01:57:45;100116.25;;;11.92;75.43
37848;BME280;23688;33.130;-117.188;2023-03-25T02:00:14;100114.28;;;11.87;75.69
37848;BME280;23688;33.130;-117.188;2023-03-25T02:02:41;100106.09;;;11.79;77.37
37848;BME280;23688;33.130;-117.188;2023-03-25T02:05:18;100125.88;;;11.57;76.17
37848;BME280;23688;33.130;-117.188;2023-03-25T02:07:48;100132.69;;;11.91;76.49
37848;BME280;23688;33.130;-117.188;2023-03-25T02:10:15;100133.94;;;12.19;75.62
37848;BME280;23688;33.130;-117.188;2023-03-25T02:12:41;100123.94;;;12.28;75.73
37848;BME280;23688;33.130;-117.188;2023-03-25T02:15:11;100120.13;;;12.39;75.63
37848;BME280;23688;33.130;-117.188;2023-03-25T02:32:53;100137.38;;;12.37;76.84
37848;BME280;23688;33.130;-117.188;2023-03-25T02:38:14;100130.47;;;12.18;77.43
37848;BME280;23688;33.130;-117.188;2023-03-25T02:40:45;100133.81;;;12.16;78.47
37848;BME280;23688;33.130;-117.188;2023-03-25T02:45:52;100151.22;;;12.17;79.89
37848;BME280;23688;33.130;-117.188;2023-03-25T02:48:47;100158.06;;;12.15;80.27
37848;BME280;23688;33.130;-117.188;2023-03-25T02:51:31;100151.41;;;12.02;80.51
37848;BME280;23688;33.130;-117.188;2023-03-25T02:54:08;100158.47;;;12.05;80.87
37848;BME280;23688;33.130;-117.188;2023-03-25T02:56:37;100147.69;;;11.97;81.49
37848;BME280;23688;33.130;-117.188;2023-03-25T02:59:07;100151.88;;;11.93;82.32
37848;BME280;23688;33.130;-117.188;2023-03-25T03:01:35;100142.09;;;11.88;83.14
37848;BME280;23688;33.130;-117.188;2023-03-25T03:04:01;100147.66;;;11.95;83.16
37848;BME280;23688;33.130;-117.188;2023-03-25T03:06:28;100150.25;;;11.95;83.89
37848;BME280;23688;33.130;-117.188;2023-03-25T03:09:08;100150.63;;;11.85;84.47
37848;BME280;23688;33.130;-117.188;2023-03-25T03:11:58;100135.97;;;11.69;85.23
37848;BME280;23688;33.130;-117.188;2023-03-25T03:17:12;100150.25;;;11.60;86.35
37848;BME280;23688;33.130;-117.188;2023-03-25T03:19:59;100146.47;;;11.53;87.07
37848;BME280;23688;33.130;-117.188;2023-03-25T03:30:46;100152.41;;;11.50;89.53
37848;BME280;23688;33.130;-117.188;2023-03-25T03:36:19;100170.47;;;11.47;90.21
37848;BME280;23688;33.130;-117.188;2023-03-25T03:38:46;100178.94;;;11.43;90.12
37848;BME280;23688;33.130;-117.188;2023-03-25T03:41:20;100174.66;;;11.44;90.56
37848;BME280;23688;33.130;-117.188;2023-03-25T03:44:06;100166.31;;;11.33;91.25
37848;BME280;23688;33.130;-117.188;2023-03-25T03:46:42;100174.47;;;11.41;90.85
37848;BME280;23688;33.130;-117.188;2023-03-25T03:49:16;100169.78;;;11.33;91.04
37848;BME280;23688;33.130;-117.188;2023-03-25T03:52:13;100184.44;;;11.31;91.08
37848;BME280;23688;33.130;-117.188;2023-03-25T03:54:59;100193.69;;;11.26;91.36
37848;BME280;23688;33.130;-117.188;2023-03-25T03:57:37;100197.03;;;11.24;91.85
37848;BME280;23688;33.130;-117.188;2023-03-25T04:00:11;100181.81;;;11.13;92.17
37848;BME280;23688;33.130;-117.188;2023-03-25T04:02:53;100194.94;;;11.17;92.01
37848;BME280;23688;33.130;-117.188;2023-03-25T04:05:22;100196.44;;;11.11;92.20
37848;BME280;23688;33.130;-117.188;2023-03-25T04:08:28;100205.16;;;11.12;92.21
37848;BME280;23688;33.130;-117.188;2023-03-25T04:11:01;100216.81;;;11.20;91.80
37848;BME280;23688;33.130;-117.188;2023-03-25T04:13:36;100220.00;;;11.14;91.86
37848;BME280;23688;33.130;-117.188;2023-03-25T04:16:05;100218.03;;;11.10;91.97
37848;BME280;23688;33.130;-117.188;2023-03-25T04:18:32;100221.25;;;11.05;92.43
37848;BME280;23688;33.130;-117.188;2023-03-25T04:20:59;100189.94;;;10.85;92.33
37848;BME280;23688;33.130;-117.188;2023-03-25T04:23:27;100203.88;;;10.87;92.96
37848;BME280;23688;33.130;-117.188;2023-03-25T04:25:59;100217.59;;;10.85;92.51
37848;BME280;23688;33.130;-117.188;2023-03-25T04:28:27;100229.13;;;10.90;92.94
37848;BME280;23688;33.130;-117.188;2023-03-25T04:30:53;100226.06;;;10.81;93.07
37848;BME280;23688;33.130;-117.188;2023-03-25T04:33:25;100226.56;;;10.74;93.11
37848;BME280;23688;33.130;-117.188;2023-03-25T04:35:56;100226.31;;;10.69;93.46
37848;BME280;23688;33.130;-117.188;2023-03-25T04:38:22;100220.88;;;10.64;93.66
37848;BME280;23688;33.130;-117.188;2023-03-25T04:40:52;100213.81;;;10.62;93.98
37848;BME280;23688;33.130;-117.188;2023-03-25T04:43:18;100217.22;;;10.61;94.17
37848;BME280;23688;33.130;-117.188;2023-03-25T04:45:45;100215.28;;;10.57;94.16
37848;BME280;23688;33.130;-117.188;2023-03-25T04:48:27;100235.91;;;10.54;94.39
37848;BME280;23688;33.130;-117.188;2023-03-25T04:50:56;100229.31;;;10.44;93.95
37848;BME280;23688;33.130;-117.188;2023-03-25T04:53:27;100229.84;;;10.38;95.00
37848;BME280;23688;33.130;-117.188;2023-03-25T04:55:54;100230.44;;;10.33;95.18
37848;BME280;23688;33.130;-117.188;2023-03-25T04:58:21;100218.63;;;10.23;95.60
37848;BME280;23688;33.130;-117.188;2023-03-25T05:00:50;100220.19;;;10.19;95.67
37848;BME280;23688;33.130;-117.188;2023-03-25T05:03:18;100237.41;;;10.19;95.56
37848;BME280;23688;33.130;-117.188;2023-03-25T05:05:51;100241.22;;;10.09;95.66
37848;BME280;23688;33.130;-117.188;2023-03-25T05:08:17;100241.22;;;10.09;96.00
37848;BME280;23688;33.130;-117.188;2023-03-25T05:10:46;100239.59;;;10.11;96.26
37848;BME280;23688;33.130;-117.188;2023-03-25T05:13:13;100220.56;;;10.11;96.28
37848;BME280;23688;33.130;-117.188;2023-03-25T05:15:39;100198.16;;;9.96;95.56
37848;BME280;23688;33.130;-117.188;2023-03-25T05:18:10;100218.06;;;10.12;95.85
37848;BME280;23688;33.130;-117.188;2023-03-25T05:20:40;100207.22;;;10.04;95.49
37848;BME280;23688;33.130;-117.188;2023-03-25T05:23:08;100220.09;;;10.18;95.93
37848;BME280;23688;33.130;-117.188;2023-03-25T05:25:47;100223.56;;;10.18;96.38
37848;BME280;23688;33.130;-117.188;2023-03-25T05:28:15;100218.53;;;10.21;96.30
37848;BME280;23688;33.130;-117.188;2023-03-25T05:30:44;100229.09;;;10.24;96.29
37848;BME280;23688;33.130;-117.188;2023-03-25T05:33:13;100221.22;;;10.23;95.78
37848;BME280;23688;33.130;-117.188;2023-03-25T05:35:41;100224.53;;;10.20;96.24
37848;BME280;23688;33.130;-117.188;2023-03-25T05:38:08;100206.94;;;10.15;96.16
37848;BME280;23688;33.130;-117.188;2023-03-25T05:40:37;100214.06;;;10.19;96.28
37848;BME280;23688;33.130;-117.188;2023-03-25T05:43:05;100224.69;;;10.23;96.45
37848;BME280;23688;33.130;-117.188;2023-03-25T05:45:32;100216.03;;;10.23;96.63
37848;BME280;23688;33.130;-117.188;2023-03-25T05:48:01;100220.97;;;10.18;97.10
37848;BME280;23688;33.130;-117.188;2023-03-25T05:50:28;100215.94;;;10.21;96.78
37848;BME280;23688;33.130;-117.188;2023-03-25T05:52:55;100219.50;;;10.23;97.27
37848;BME280;23688;33.130;-117.188;2023-03-25T05:55:22;100212.56;;;10.22;98.14
37848;BME280;23688;33.130;-117.188;2023-03-25T05:57:50;100214.31;;;10.23;97.89
37848;BME280;23688;33.130;-117.188;2023-03-25T06:00:18;100213.53;;;10.24;97.88
37848;BME280;23688;33.130;-117.188;2023-03-25T06:02:46;100202.81;;;10.18;98.26
37848;BME280;23688;33.130;-117.188;2023-03-25T06:05:14;100191.19;;;10.12;98.51
37848;BME280;23688;33.130;-117.188;2023-03-25T06:07:44;100193.78;;;10.12;98.63
37848;BME280;23688;33.130;-117.188;2023-03-25T06:10:16;100206.69;;;10.10;98.08
37848;BME280;23688;33.130;-117.188;2023-03-25T06:12:47;100190.28;;;9.95;97.92
37848;BME280;23688;33.130;-117.188;2023-03-25T06:15:16;100203.97;;;9.92;98.11
37848;BME280;23688;33.130;-117.188;2023-03-25T06:18:08;100200.94;;;9.84;97.91
37848;BME280;23688;33.130;-117.188;2023-03-25T06:20:35;100191.16;;;9.79;98.13
37848;BME280;23688;33.130;-117.188;2023-03-25T06:23:01;100193.63;;;9.77;98.21
37848;BME280;23688;33.130;-117.188;2023-03-25T06:25:28;100197.16;;;9.78;98.57
37848;BME280;23688;33.130;-117.188;2023-03-25T06:27:55;100190.19;;;9.62;98.30
37848;BME280;23688;33.130;-117.188;2023-03-25T06:30:26;100191.81;;;9.60;98.54
37848;BME280;23688;33.130;-117.188;2023-03-25T06:32:52;100181.38;;;9.58;99.05
37848;BME280;23688;33.130;-117.188;2023-03-25T06:35:20;100170.66;;;9.52;99.47
37848;BME280;23688;33.130;-117.188;2023-03-25T06:37:47;100177.97;;;9.59;99.72
37848;BME280;23688;33.130;-117.188;2023-03-25T06:40:14;100182.06;;;9.56;100.00
37848;BME280;23688;33.130;-117.188;2023-03-25T06:42:41;100191.28;;;9.51;99.77
37848;BME280;23688;33.130;-117.188;2023-03-25T06:45:08;100189.16;;;9.43;99.99
37848;BME280;23688;33.130;-117.188;2023-03-25T06:47:35;100195.06;;;9.41;100.00
37848;BME280;23688;33.130;-117.188;2023-03-25T06:50:01;100194.16;;;9.40;100.00
37848;BME280;23688;33.130;-117.188;2023-03-25T06:52:27;100183.47;;;9.34;100.00
37848;BME280;23688;33.130;-117.188;2023-03-25T06:54:54;100184.53;;;9.38;100.00
37848;BME280;23688;33.130;-117.188;2023-03-25T06:57:20;100189.81;;;9.39;100.00
37848;BME280;23688;33.130;-117.188;2023-03-25T06:59:46;100194.44;;;9.30;100.00
37848;BME280;23688;33.130;-117.188;2023-03-25T07:02:14;100186.84;;;9.18;99.96
37848;BME280;23688;33.130;-117.188;2023-03-25T07:04:43;100189.28;;;9.15;100.00
37848;BME280;23688;33.130;-117.188;2023-03-25T07:07:10;100172.31;;;9.06;99.98
37848;BME280;23688;33.130;-117.188;2023-03-25T07:09:36;100180.25;;;9.09;100.00
37848;BME280;23688;33.130;-117.188;2023-03-25T07:12:03;100186.31;;;9.09;100.00
37848;BME280;23688;33.130;-117.188;2023-03-25T07:14:29;100174.91;;;9.06;100.00
37848;BME280;23688;33.130;-117.188;2023-03-25T07:16:55;100176.69;;;9.07;100.00
37848;BME280;23688;33.130;-117.188;2023-03-25T07:19:22;100171.31;;;9.04;100.00
37848;BME280;23688;33.130;-117.188;2023-03-25T07:21:48;100177.38;;;9.04;100.00
37848;BME280;23688;33.130;-117.188;2023-03-25T07:24:14;100152.47;;;8.91;100.00
37848;BME280;23688;33.130;-117.188;2023-03-25T07:26:40;100179.19;;;9.05;100.00
37848;BME280;23688;33.130;-117.188;2023-03-25T07:29:07;100180.25;;;9.09;100.00
37848;BME280;23688;33.130;-117.188;2023-03-25T07:31:33;100170.59;;;9.06;100.00
37848;BME280;23688;33.130;-117.188;2023-03-25T07:34:00;100168.84;;;9.05;100.00
37848;BME280;23688;33.130;-117.188;2023-03-25T07:36:27;100176.06;;;9.11;100.00
37848;BME280;23688;33.130;-117.188;2023-03-25T07:38:53;100174.28;;;9.10;100.00
37848;BME280;23688;33.130;-117.188;2023-03-25T07:41:20;100179.53;;;9.11;100.00
37848;BME280;23688;33.130;-117.188;2023-03-25T07:43:46;100171.03;;;9.14;100.00
37848;BME280;23688;33.130;-117.188;2023-03-25T07:46:12;100174.44;;;9.13;100.00
37848;BME280;23688;33.130;-117.188;2023-03-25T07:48:39;100170.25;;;9.15;100.00
37848;BME280;23688;33.130;-117.188;2023-03-25T07:51:06;100167.66;;;9.15;100.00
37848;BME280;23688;33.130;-117.188;2023-03-25T07:53:33;100166.84;;;9.16;100.00
37848;BME280;23688;33.130;-117.188;2023-03-25T07:56:05;100158.09;;;9.14;100.00
37848;BME280;23688;33.130;-117.188;2023-03-25T07:58:32;100164.53;;;9.20;100.00
37848;BME280;23688;33.130;-117.188;2023-03-25T08:00:58;100147.66;;;9.12;100.00
37848;BME280;23688;33.130;-117.188;2023-03-25T08:03:25;100161.84;;;9.19;100.00
37848;BME280;23688;33.130;-117.188;2023-03-25T08:05:52;100148.63;;;9.14;100.00
37848;BME280;23688;33.130;-117.188;2023-03-25T08:08:19;100147.41;;;9.08;100.00
37848;BME280;23688;33.130;-117.188;2023-03-25T08:10:45;100158.09;;;9.14;100.00
37848;BME280;23688;33.130;-117.188;2023-03-25T08:13:13;100132.47;;;9.04;100.00
37848;BME280;23688;33.130;-117.188;2023-03-25T08:15:39;100150.25;;;9.12;100.00
37848;BME280;23688;33.130;-117.188;2023-03-25T08:18:06;100144.41;;;9.16;100.00
37848;BME280;23688;33.130;-117.188;2023-03-25T08:20:33;100149.97;;;9.23;100.00
37848;BME280;23688;33.130;-117.188;2023-03-25T08:23:00;100143.91;;;9.22;100.00
37848;BME280;23688;33.130;-117.188;2023-03-25T08:25:28;100137.81;;;9.21;100.00
37848;BME280;23688;33.130;-117.188;2023-03-25T08:27:54;100131.91;;;9.24;100.00
37848;BME280;23688;33.130;-117.188;2023-03-25T08:30:21;100130.94;;;9.22;100.00
37848;BME280;23688;33.130;-117.188;2023-03-25T08:32:48;100135.22;;;9.21;100.00
37848;BME280;23688;33.130;-117.188;2023-03-25T08:35:20;100123.78;;;9.18;100.00
37848;BME280;23688;33.130;-117.188;2023-03-25T08:37:47;100114.50;;;9.07;100.00
37848;BME280;23688;33.130;-117.188;2023-03-25T08:40:14;100119.34;;;9.15;100.00
37848;BME280;23688;33.130;-117.188;2023-03-25T08:42:43;100115.66;;;9.12;100.00
37848;BME280;23688;33.130;-117.188;2023-03-25T08:45:11;100111.91;;;9.07;100.00
37848;BME280;23688;33.130;-117.188;2023-03-25T08:47:38;100087.28;;;8.98;100.00
37848;BME280;23688;33.130;-117.188;2023-03-25T08:50:05;100089.88;;;8.98;100.00
37848;BME280;23688;33.130;-117.188;2023-03-25T08:52:32;100101.41;;;9.04;100.00
37848;BME280;23688;33.130;-117.188;2023-03-25T08:54:58;100100.25;;;8.98;100.00
37848;BME280;23688;33.130;-117.188;2023-03-25T08:57:24;100096.59;;;8.95;100.00
37848;BME280;23688;33.130;-117.188;2023-03-25T08:59:51;100082.91;;;8.83;100.00
37848;BME280;23688;33.130;-117.188;2023-03-25T09:02:17;100090.06;;;8.87;100.00
37848;BME280;23688;33.130;-117.188;2023-03-25T09:04:44;100083.00;;;8.84;100.00
37848;BME280;23688;33.130;-117.188;2023-03-25T09:07:13;100084.63;;;8.82;100.00
37848;BME280;23688;33.130;-117.188;2023-03-25T09:09:40;100076.50;;;8.76;100.00
37848;BME280;23688;33.130;-117.188;2023-03-25T09:12:06;100069.38;;;8.72;100.00
37848;BME280;23688;33.130;-117.188;2023-03-25T09:14:33;100066.78;;;8.72;100.00
37848;BME280;23688;33.130;-117.188;2023-03-25T09:16:59;100064.03;;;8.69;100.00
37848;BME280;23688;33.130;-117.188;2023-03-25T09:19:26;100058.84;;;8.69;100.00
37848;BME280;23688;33.130;-117.188;2023-03-25T09:21:52;100064.28;;;8.73;100.00
37848;BME280;23688;33.130;-117.188;2023-03-25T09:24:19;100066.78;;;8.72;100.00
37848;BME280;23688;33.130;-117.188;2023-03-25T09:26:47;100064.19;;;8.72;100.00
37848;BME280;23688;33.130;-117.188;2023-03-25T09:29:13;100064.28;;;8.73;100.00
37848;BME280;23688;33.130;-117.188;2023-03-25T09:31:40;100057.31;;;8.72;100.00
37848;BME280;23688;33.130;-117.188;2023-03-25T09:34:06;100063.31;;;8.71;100.00
37848;BME280;23688;33.130;-117.188;2023-03-25T09:36:32;100054.44;;;8.68;100.00
37848;BME280;23688;33.130;-117.188;2023-03-25T09:38:59;100056.53;;;8.73;100.00
37848;BME280;23688;33.130;-117.188;2023-03-25T09:44:15;100040.63;;;8.67;100.00
37848;BME280;23688;33.130;-117.188;2023-03-25T09:46:46;100043.47;;;8.72;100.00
37848;BME280;23688;33.130;-117.188;2023-03-25T09:49:20;100043.31;;;8.69;100.00
37848;BME280;23688;33.130;-117.188;2023-03-25T09:51:50;100046.94;;;8.72;100.00
37848;BME280;23688;33.130;-117.188;2023-03-25T09:54:24;100047.94;;;8.74;100.00
37848;BME280;23688;33.130;-117.188;2023-03-25T09:56:54;100051.41;;;8.75;100.00
37848;BME280;23688;33.130;-117.188;2023-03-25T09:59:33;100038.47;;;8.75;100.00
37848;BME280;23688;33.130;-117.188;2023-03-25T10:02:25;100047.22;;;8.77;100.00
37848;BME280;23688;33.130;-117.188;2023-03-25T10:13:26;100013.97;;;8.53;100.00
37848;BME280;23688;33.130;-117.188;2023-03-25T10:16:26;100005.84;;;8.47;100.00
37848;BME280;23688;33.130;-117.188;2023-03-25T10:24:17;100005.56;;;8.43;100.00
37848;BME280;23688;33.130;-117.188;2023-03-25T10:26:51;99998.53;;;8.40;100.00
37848;BME280;23688;33.130;-117.188;2023-03-25T10:29:30;100000.50;;;8.44;100.00
37848;BME280;23688;33.130;-117.188;2023-03-25T10:32:04;99995.22;;;8.43;100.00
37848;BME280;23688;33.130;-117.188;2023-03-25T10:34:39;99979.22;;;8.35;100.00
37848;BME280;23688;33.130;-117.188;2023-03-25T10:37:13;99971.75;;;8.25;100.00
37848;BME280;23688;33.130;-117.188;2023-03-25T10:39:42;99993.66;;;8.31;100.00
37848;BME280;23688;33.130;-117.188;2023-03-25T10:42:36;99990.00;;;8.28;100.00
37848;BME280;23688;33.130;-117.188;2023-03-25T10:45:15;99984.94;;;8.29;100.00
37848;BME280;23688;33.130;-117.188;2023-03-25T10:47:45;99988.41;;;8.30;100.00
37848;BME280;23688;33.130;-117.188;2023-03-25T10:50:16;99981.88;;;8.22;100.00
37848;BME280;23688;33.130;-117.188;2023-03-25T10:52:44;99981.66;;;8.17;100.00
37848;BME280;23688;33.130;-117.188;2023-03-25T10:55:27;99962.19;;;8.09;100.00
37848;BME280;23688;33.130;-117.188;2023-03-25T10:57:54;99965.47;;;8.06;100.00
37848;BME280;23688;33.130;-117.188;2023-03-25T11:00:21;99974.22;;;8.08;100.00
37848;BME280;23688;33.130;-117.188;2023-03-25T11:02:49;99975.81;;;8.06;100.00
37848;BME280;23688;33.130;-117.188;2023-03-25T11:05:21;99984.22;;;8.02;100.00
37848;BME280;23688;33.130;-117.188;2023-03-25T11:07:57;99979.84;;;8.01;100.00
37848;BME280;23688;33.130;-117.188;2023-03-25T11:10:31;99972.91;;;8.00;100.00
37848;BME280;23688;33.130;-117.188;2023-03-25T11:13:00;99973.69;;;7.99;100.00
37848;BME280;23688;33.130;-117.188;2023-03-25T11:15:36;99964.75;;;7.94;100.00
37848;BME280;23688;33.130;-117.188;2023-03-25T11:20:54;99960.91;;;7.87;100.00
37848;BME280;23688;33.130;-117.188;2023-03-25T11:23:31;99969.75;;;7.91;100.00
37848;BME280;23688;33.130;-117.188;2023-03-25T11:26:20;99962.78;;;7.90;100.00
37848;BME280;23688;33.130;-117.188;2023-03-25T11:29:16;99948.53;;;7.82;100.00
37848;BME280;23688;33.130;-117.188;2023-03-25T11:31:41;99945.16;;;7.83;100.00
37848;BME280;23688;33.130;-117.188;2023-03-25T11:36:52;99955.81;;;7.74;100.00
37848;BME280;23688;33.130;-117.188;2023-03-25T11:41:50;99956.97;;;7.64;100.00
37848;BME280;23688;33.130;-117.188;2023-03-25T11:44:29;99952.13;;;7.56;100.00
37848;BME280;23688;33.130;-117.188;2023-03-25T11:47:06;99928.94;;;7.42;100.00
37848;BME280;23688;33.130;-117.188;2023-03-25T11:49:37;99947.66;;;7.53;100.00
37848;BME280;23688;33.130;-117.188;2023-03-25T11:52:08;99947.66;;;7.53;100.00
37848;BME280;23688;33.130;-117.188;2023-03-25T11:54:39;99956.22;;;7.52;100.00
37848;BME280;23688;33.130;-117.188;2023-03-25T11:57:32;99945.59;;;7.47;100.00
37848;BME280;23688;33.130;-117.188;2023-03-25T12:00:51;99944.53;;;7.44;100.00
37848;BME280;23688;33.130;-117.188;2023-03-25T12:03:05;99942.38;;;7.37;100.00
37848;BME280;23688;33.130;-117.188;2023-03-25T12:05:40;99937.13;;;7.35;100.00
37848;BME280;23688;33.130;-117.188;2023-03-25T12:08:16;99935.94;;;7.30;100.00
37848;BME280;23688;33.130;-117.188;2023-03-25T12:11:04;99946.63;;;7.36;100.00
37848;BME280;23688;33.130;-117.188;2023-03-25T12:13:45;99933.38;;;7.30;100.00
37848;BME280;23688;33.130;-117.188;2023-03-25T12:27:08;99942.28;;;7.35;100.00
37848;BME280;23688;33.130;-117.188;2023-03-25T12:29:51;99939.41;;;7.31;100.00
37848;BME280;23688;33.130;-117.188;2023-03-25T12:32:35;99921.69;;;7.22;100.00
37848;BME280;23688;33.130;-117.188;2023-03-25T12:35:17;99938.34;;;7.27;100.00
37848;BME280;23688;33.130;-117.188;2023-03-25T12:38:16;99934.84;;;7.26;100.00
37848;BME280;23688;33.130;-117.188;2023-03-25T12:46:44;99920.41;;;7.15;100.00
37848;BME280;23688;33.130;-117.188;2023-03-25T12:55:16;99926.59;;;7.04;100.00
37848;BME280;23688;33.130;-117.188;2023-03-25T12:57:56;99926.41;;;7.01;100.00
37848;BME280;23688;33.130;-117.188;2023-03-25T13:00:31;99914.78;;;6.94;100.00
37848;BME280;23688;33.130;-117.188;2023-03-25T13:03:15;99939.13;;;6.98;100.00
37848;BME280;23688;33.130;-117.188;2023-03-25T13:08:59;99935.38;;;6.93;100.00
37848;BME280;23688;33.130;-117.188;2023-03-25T13:11:46;99939.53;;;6.91;100.00
37848;BME280;23688;33.130;-117.188;2023-03-25T13:14:28;99928.31;;;6.90;100.00
37848;BME280;23688;33.130;-117.188;2023-03-25T13:16:59;99939.53;;;6.91;100.00
37848;BME280;23688;33.130;-117.188;2023-03-25T13:19:30;99949.09;;;6.78;100.00
37848;BME280;23688;33.130;-117.188;2023-03-25T13:22:03;99941.81;;;6.86;100.00
37848;BME280;23688;33.130;-117.188;2023-03-25T13:24:41;99941.31;;;6.92;100.00
37848;BME280;23688;33.130;-117.188;2023-03-25T13:27:10;99939.81;;;6.95;100.00
37848;BME280;23688;33.130;-117.188;2023-03-25T13:29:43;99915.50;;;6.92;100.00
37848;BME280;23688;33.130;-117.188;2023-03-25T13:32:21;99933.16;;;6.99;100.00
37848;BME280;23688;33.130;-117.188;2023-03-25T13:34:53;99909.16;;;6.86;100.00
37848;BME280;23688;33.130;-117.188;2023-03-25T13:37:35;99932.16;;;6.97;100.00
37848;BME280;23688;33.130;-117.188;2023-03-25T13:40:34;99930.47;;;6.97;100.00
37848;BME280;23688;33.130;-117.188;2023-03-25T13:43:12;99929.78;;;7.00;100.00
37848;BME280;23688;33.130;-117.188;2023-03-25T13:48:36;99940.31;;;7.03;100.00
37848;BME280;23688;33.130;-117.188;2023-03-25T13:51:06;99936.72;;;7.01;100.00
37848;BME280;23688;33.130;-117.188;2023-03-25T13:53:49;99932.38;;;7.00;100.00
37848;BME280;23688;33.130;-117.188;2023-03-25T13:56:44;99949.75;;;7.02;100.00
37848;BME280;23688;33.130;-117.188;2023-03-25T14:02:30;99964.31;;;7.02;100.00
37848;BME280;23688;33.130;-117.188;2023-03-25T14:05:34;99972.88;;;7.01;100.00
37848;BME280;23688;33.130;-117.188;2023-03-25T14:13:28;99939.72;;;6.94;100.00
37848;BME280;23688;33.130;-117.188;2023-03-25T14:16:18;99931.56;;;7.01;100.00
37848;BME280;23688;33.130;-117.188;2023-03-25T14:18:52;99930.69;;;7.00;100.00
37848;BME280;23688;33.130;-117.188;2023-03-25T14:23:47;99908.63;;;7.05;100.00